Airfield :
LOGIN :

Register | Disclaimer

   EN    FR    IT 

 










Legend :    VFR   Marginal VFR   IFR   Intensive IFR   Very Intensive IFR
Visi :
Ceiling :
>= 8 km
>= 3000ft
5 to 8 km
1000 to 3000 ft
1500m to 5 km
500 to 1000 ft
800 to 1500m
200 to 500 ft
< 800m
< 200 ft
Symbols :   Thunderstorms  Fog  Heavy snow  Heavy precipitations  Wind > 20 kt
SIGMETs :     Misc.  Thunderstorms  Icing  Turbulence  Mountain Waves  Volcanic Ashes






- Airport Elevation : 1197 ft
- IATA code : SPM


ETAD - Spangdahlem Ab

CURRENT METAR :
  • 230155Z AUTO 00000KT 9999 BKN055 17/13 A3009 RMK AO2 SLP176 T01660127 $

EXPIRED METARs :
  • 230125Z AUTO 00000KT 9999 BKN050 16/13 A3010 RMK AO2 SLP180 $
  • 230055Z AUTO 26003KT 9999 CLR 16/13 A3010 RMK AO2 SLP180 T01620125 $
  • 222355Z AUTO 27003KT 9999 CLR 17/12 A3011 RMK AO2 SLP183 T01650124 10219 20165 50000 $
  • 222255Z AUTO 00000KT 9999 CLR 17/12 A3011 RMK AO2 SLP184 T01710124 402390171
  • 222155Z AUTO 00000KT 9999 CLR 18/13 A3011 RMK AO2 SLP183 T01770126

TAF TAF ETAD
Valid from the 22 at 20:00 until the 24 at 02:00 UTC


222000Z 2220/2402 26009KT 9999 BKN050 QNH3010INS
BECMG 2221/2222 25006KT 9999 BKN030 QNH3009INS
BECMG 2300/2301 24003KT 8000 BR SCT010 BKN020 QNH3008INS
BECMG 2303/2304 22006KT 5000 BR SCT009 BKN015 QNH3008INS
BECMG 2312/2313 26012G20KT 5000 RA BR SCT020 BKN030 QNH3004INS
BECMG 2315/2316 29010KT 9999 NSW SCT030 BKN060 QNH3006INS TX23/2315Z TN16/2302Z LAST NO AMDS AFT 2220 NEXT 2304



MET'MAP, your aeronautical weather chart ! - Copyright ORBIFLY December 2007 - Disclaimer

ORBIFLY MET'MAP TEAM :

Programming & Development : Alexandra Zaïnal
Original concept : Baudouin d'Aumeries
Technical & hardware support : Manuel Goepfert
Assistance : Marc-Olivier Méhu




SOURCES & CREDITS :

   NOAA